Vitor Souza

Olheiro-Chefe - Paysandu
29 Abr 2027
Quinta-feira
Processo

Personalidade

Adaptabilidade (17) Ambição (2) Controvérsia (17) Lealdade (14) Pressão (6) Profissionalismo (1) Espírito Esportivo (2) Temperamento (18)

Perfil

Estilo de Treinamento Democrático
Licença Continental Pro
Determinação 10
Gestão de Pessoas 5
Motivação 11
Disciplina 5
Satisfação no Trabalho
50%
Fadiga
0%
Função Olheiro-Chefe
Salário 37.7K p/s
Contrato 14.03.2028

Desempenho

Comportamento Normal
Eficácia do Treinamento
11%
Desenvolvimento do Jogador
50%
Prevenção de Lesões
35%
Implementação Tática
25%

Eventos Recentes

Participou de uma reunião de recrutamento agora
Recomendou um alvo de transferência agora
Participou de uma reunião de recrutamento 7d atrás
Recomendou um alvo de transferência 7d atrás
Recomendou um alvo de transferência 7d atrás
Recomendou um alvo de transferência 7d atrás
Recomendou um alvo de transferência 14d atrás
Recomendou um alvo de transferência 14d atrás

Monitorando agora

111
Jogador Clube Status Habilidade Confiança Observado Última observação Último voto
Orlando Neto São Paulo Ativo 84 / 96 72% 1 06.12.2026 Aprovar
Alfonso Trezza Arouca Ativo 118 / 114 40% 5 02.12.2026 -
Miguel Pires Vizela Ativo 114 / 109 40% 1 02.12.2026 -
Miguel Baeza Nacional Ativo 113 / 121 40% 1 02.12.2026 -
Andreas Trimmel Red Bull Salzburg Ativo 131 / 131 60% 1 01.12.2026 Aprovar
Amar Memić Casa Pia Negociando 127 / 128 62% 1 01.12.2026 Aprovar
André Silva Tondela Ativo 126 / 136 40% 4 30.11.2026 -
Pau Víctor AVS Ativo 147 / 147 40% 6 24.11.2026 -
Chuchu Ramírez Nacional Ativo 141 / 141 40% 5 24.11.2026 -
Jackson Muleka Konyaspor Ativo 120 / 138 40% 2 24.11.2026 -
Dawda Camara Alverca Ativo 123 / 130 40% 2 22.11.2026 -
Richard Koné Queens Park Rangers Ativo 127 / 113 40% 3 22.11.2026 -
Joe Gelhardt Hull City Ativo 130 / 137 40% 1 22.11.2026 -
Jalen Blesa Rio Ave Ativo 115 / 118 40% 3 18.11.2026 -
Max Svensson Penafiel Ativo 110 / 116 40% 2 18.11.2026 -
Petar Musa Adana Demirspor Ativo 142 / 146 40% 1 17.11.2026 -
Germán Berterame Inter Miami CF Ativo 132 / 122 40% 4 15.11.2026 -
Oscar Gloukh Ajax Ativo 136 / 136 40% 2 15.11.2026 -
André Clovis Leiria Ativo 119 / 114 40% 3 14.11.2026 -
Yousef Salech Cardiff City Ativo 116 / 115 40% 1 14.11.2026 -
Myron Boadu Twente Ativo 120 / 121 40% 1 12.11.2026 -
Ianis Stoica Estrela da Amadora Ativo 113 / 120 40% 4 11.11.2026 -
Adnan Courtois KV Oostende Ativo 141 / 138 40% 1 11.11.2026 -
Roméo Beney Famalicao Ativo 114 / 125 40% 4 09.11.2026 -
Romelu Castagne KV Oostende Ativo 134 / 136 40% 2 09.11.2026 -
Vinícius Lopes Santa Clara Ativo 120 / 116 40% 3 04.11.2026 -
Aurélien Scheidler Charleroi Ativo 122 / 114 40% 2 04.11.2026 -
Christian Kouamé Aris Thessaloniki Ativo 141 / 122 40% 1 01.11.2026 -
Brayan Gil Baltika Ativo 122 / 112 40% 1 01.11.2026 -
Yanis Begraoui Estoril Praia Ativo 123 / 143 40% 2 30.10.2026 -
Agustín Módica Gimnasia y Esgrima Ativo 116 / 127 40% 1 30.10.2026 -
Zé Leite Leixões Ativo 107 / 121 40% 5 29.10.2026 -
Ferreirinha Sport Recife Ativo 123 / 124 40% 3 28.10.2026 -
Patson Daka Leicester City Ativo 119 / 130 40% 1 25.10.2026 -
Negueba Mirassol Ativo 131 / 114 40% 3 23.10.2026 -
Sead Hakšabanović Malmo FF Ativo 118 / 118 40% 2 21.10.2026 -
Luka Kurtovic NK Domzale Ativo 137 / 117 40% 1 21.10.2026 -
Manuel Ospina Cortulua Ativo 119 / 119 40% 1 20.10.2026 -
Korede Osundina Casa Pia Ativo 126 / 121 40% 2 19.10.2026 -
Mourad Tijuana Ativo 121 / 125 40% 2 18.10.2026 -
Andre Green AVS Ativo 105 / 112 40% 2 17.10.2026 -
Cameron Archer Southampton Ativo 119 / 119 40% 1 15.10.2026 -
Jair Silva Leiria Ativo 100 / 110 40% 3 14.10.2026 -
Breel Embolo Atlanta United FC Ativo 145 / 130 40% 3 12.10.2026 -
Zian Flemming Ipswich Town Ativo 128 / 140 40% 1 12.10.2026 -
Rodrigo Bogarín Barracas Central Ativo 116 / 115 40% 1 10.10.2026 -
Juninho Pumas UNAM Ativo 131 / 133 40% 3 08.10.2026 -
Figueiredo Alverca Ativo 128 / 137 40% 2 06.10.2026 -
Leonardo Campana New England Revolution Ativo 129 / 134 40% 2 05.10.2026 -
Tommy Conway Middlesbrough Ativo 133 / 128 40% 1 05.10.2026 -
Renato Kayser Vitória Ativo 120 / 121 40% 1 04.10.2026 -
Alejandro Melo Cibalia Ativo 107 / 102 40% 1 04.10.2026 -
Martín Tejón Maritimo Ativo 115 / 114 40% 1 04.10.2026 -
Santiago Rodríguez Gimnasia y Esgrima Ativo 117 / 114 40% 1 03.10.2026 -
Pablo Fernández Leiria Ativo 107 / 101 40% 1 03.10.2026 -
Juan Muñoz Leiria Ativo 128 / 119 40% 3 02.10.2026 -
Gabriel Jesus Barcelona Ativo 160 / 143 40% 3 01.10.2026 -
Misael Sosa Godoy Cruz Ativo 120 / 118 40% 1 01.10.2026 -
Kévin Denkey FC Cincinnati Ativo 137 / 131 40% 3 28.09.2026 -
Héctor Hernández Gil Vicente Ativo 123 / 135 40% 1 25.09.2026 -
Lucas Duarte Felgueiras Ativo 109 / 108 40% 1 25.09.2026 -
Alonso Martínez New York City Ativo 120 / 119 40% 1 20.09.2026 -
Edwar López Deportes Tolima Ativo 118 / 123 40% 1 20.09.2026 -
Dylan Nandín Arouca Ativo 121 / 119 40% 1 19.09.2026 -
Marcus Ingvartsen San Diego Football Club Ativo 134 / 131 40% 1 16.09.2026 -
Rafael Navarro St. Louis CITY SC Ativo 125 / 123 40% 1 16.09.2026 -
Mohammed Bouldini Académico de Viseu Ativo 113 / 118 40% 2 15.09.2026 -
Martín Ojeda Orlando City Ativo 135 / 127 40% 1 12.09.2026 -
Fally Mayulu Arouca Ativo 105 / 108 40% 1 12.09.2026 -
Bénie Traoré New York City Ativo 117 / 137 40% 2 11.09.2026 -
Lukas Nmecha Leeds United Ativo 119 / 126 40% 1 11.09.2026 -
Henrique Araújo Casa Pia Ativo 128 / 109 40% 2 10.09.2026 -
Ross Stewart Southampton Ativo 130 / 136 40% 1 10.09.2026 -
Kévin Zohi Torreense Ativo 116 / 109 40% 2 09.09.2026 -
João Klauss LA Galaxy Ativo 113 / 118 40% 2 07.09.2026 -
Haji Wright Coventry City Ativo 139 / 126 40% 1 05.09.2026 -
Denis Bouanga Los Angeles Football Club Ativo 140 / 141 40% 1 05.09.2026 -
Dany Jean Torreense Ativo 104 / 112 40% 1 04.09.2026 -
Jesus Ferreira Seattle Sounders Ativo 121 / 140 40% 1 31.08.2026 -
Fotis Ioannidis Rio Ave Ativo 133 / 129 40% 1 31.08.2026 -
Mika Lusitânia Lourosa Ativo 102 / 116 40% 1 31.08.2026 -
Oli McBurnie Hull City Ativo 124 / 145 40% 1 29.08.2026 -
Agustín Anello Philadelphia Union Ativo 124 / 116 40% 1 29.08.2026 -
Myrto Uzuni Austin FC Ativo 124 / 144 40% 1 29.08.2026 -
Josh Sargent Toronto FC Ativo 131 / 128 40% 1 26.08.2026 -
Maximiliano Rodríguez Huachipato Ativo 113 / 108 40% 1 26.08.2026 -
David Zapata Sheffield Wednesday Ativo 153 / 149 40% 1 25.08.2026 -
Bryan Limbombe Maritimo Ativo 112 / 96 40% 1 25.08.2026 -
Alexandre Duville-Parsemain Moreirense Ativo 112 / 118 40% 1 24.08.2026 -
Angel Bastunov Vizela Ativo 110 / 110 40% 1 24.08.2026 -
Nicolás Sosa Racing Ativo 120 / 111 40% 1 24.08.2026 -
Wessam Abou Ali Columbus Crew Ativo 134 / 135 40% 1 22.08.2026 -
André Lacximicant Estoril Praia Ativo 99 / 100 40% 1 22.08.2026 -
Timo Werner San Jose Earthquakes Ativo 128 / 137 40% 1 17.08.2026 -
George Hirst Stoke City Ativo 122 / 127 40% 1 17.08.2026 -
Gabriel Taliari Juventude Ativo 124 / 121 40% 1 15.08.2026 -
Pablo Ruan Nacional Ativo 104 / 115 40% 1 14.08.2026 -
Santiago Ramos Mingo Bahia Ativo 136 / 127 40% 1 07.08.2026 -
Jordan Holsgrove Estoril Praia Ativo 141 / 139 40% 1 07.08.2026 -
Rodrigo Pinheiro Famalicao Ativo 128 / 130 40% 1 06.08.2026 -
Sabit Abdulai Alverca Ativo 111 / 126 40% 1 06.08.2026 -
Diogo Travassos Braga Ativo 135 / 118 40% 1 06.08.2026 -
Adriel Torreense Ativo 103 / 104 40% 1 06.08.2026 -
Rodrigo Morínigo Libertad Ativo 120 / 111 40% 1 06.08.2026 -
Jakob Tånnander Farense Ativo 113 / 102 40% 1 05.08.2026 -
Antonio Gomis Vizela Ativo 113 / 107 40% 1 04.08.2026 -
Juan Soriano Académico de Viseu Ativo 111 / 117 40% 1 04.08.2026 -
Mauro Silveira Junior Ativo 109 / 123 40% 1 02.08.2026 -
Samuel Soares Benfica Ativo 118 / 123 40% 1 02.08.2026 -
Nicolás Campisi Sportivo Luqueno Ativo 124 / 128 40% 1 02.08.2026 -
Jon Karrikaburu Burgos Ativo 130 / 117 40% 1 01.08.2026 -